<?xml version='1.0' encoding='UTF-8'?><gpx version="1.1" creator="JPX - https://github.com/jenetics/jpx" xmlns="http://www.topografix.com/GPX/1/1"><trk><trkseg><trkpt lat="45.5790888" lon="9.7168176"><ele>156.0</ele><time>2026-05-06T12:50:59.499Z</time></trkpt><trkpt lat="45.5783922" lon="9.7168665"><ele>156.0</ele><time>2026-05-06T12:52:10.258Z</time></trkpt><trkpt lat="45.5790881" lon="9.7168049"><ele>156.0</ele><time>2026-05-06T12:53:52.044Z</time></trkpt><trkpt lat="45.5782817" lon="9.7168809"><ele>156.0</ele><time>2026-05-06T12:53:56.84Z</time></trkpt><trkpt lat="45.5790919" lon="9.7168131"><ele>156.0</ele><time>2026-05-06T12:54:30.956Z</time></trkpt><trkpt lat="45.5789195" lon="9.7168536"><ele>156.0</ele><time>2026-05-06T12:56:10.847Z</time></trkpt><trkpt lat="45.5790858" lon="9.7168961"><ele>156.0</ele><time>2026-05-06T12:57:46.644Z</time></trkpt><trkpt lat="45.5785864" lon="9.7168958"><ele>156.0</ele><time>2026-05-06T12:58:42.845Z</time></trkpt><trkpt lat="45.5787288" lon="9.7168688"><ele>156.0</ele><time>2026-05-06T12:59:23.878Z</time></trkpt><trkpt lat="45.5788018" lon="9.7168608"><ele>156.0</ele><time>2026-05-06T13:01:58.908Z</time></trkpt><trkpt lat="45.5788932" lon="9.7168912"><ele>156.0</ele><time>2026-05-06T13:02:34.902Z</time></trkpt><trkpt lat="45.5788311" lon="9.7168415"><ele>156.0</ele><time>2026-05-06T13:02:49.897Z</time></trkpt><trkpt lat="45.5787554" lon="9.7168426"><ele>156.0</ele><time>2026-05-06T13:02:51.903Z</time></trkpt><trkpt lat="45.5784666" lon="9.7168477"><ele>156.0</ele><time>2026-05-06T13:02:59.899Z</time></trkpt><trkpt lat="45.5790854" lon="9.7168548"><ele>156.0</ele><time>2026-05-06T13:03:15.965Z</time></trkpt><trkpt lat="45.5780781" lon="9.7170106"><ele>156.0</ele><time>2026-05-06T13:03:36.838Z</time></trkpt><trkpt lat="45.5779919" lon="9.7170055"><ele>156.0</ele><time>2026-05-06T13:03:39.887Z</time></trkpt><trkpt lat="45.5790848" lon="9.716853"><ele>156.0</ele><time>2026-05-06T13:03:54.981Z</time></trkpt><trkpt lat="45.578011" lon="9.7170296"><ele>156.0</ele><time>2026-05-06T13:04:16.844Z</time></trkpt><trkpt lat="45.5790882" lon="9.7168373"><ele>156.0</ele><time>2026-05-06T13:05:05.434Z</time></trkpt><trkpt lat="45.5781735" lon="9.7169398"><ele>156.0</ele><time>2026-05-06T13:05:16.877Z</time></trkpt></trkseg></trk></gpx>